Time;durP1;ratioP1;P1;durP2;ratioP2;P2;SDS_P1;SDS_P2;PMS_P1;PMS_P2;Temp;Humidity;BMP_temperature;BMP_pressure;BME280_temperature;BME280_humidity;BME280_pressure;Samples;Min_cycle;Max_cycle;Signal;HPM_P1;HPM_P2
2023/03/19 00:01:40;;;;;;;;;;;;;;;;;;5055412;28;19913;-44
2023/03/19 00:04:05;;;;;;;;;;;;;;;;;;5055571;28;20365;-41
2023/03/19 00:06:31;;;;;;;;;;;;;;;;;;5055688;28;20380;-43
2023/03/19 00:08:56;;;;;;;;;;;;;;;;;;5055842;28;19916;-42
2023/03/19 00:11:22;;;;;;;;;;;;;;;;;;5055207;28;19909;-42
2023/03/19 00:13:47;;;;;;;;;;;;;;;;;;5047263;28;19920;-43
2023/03/19 00:16:12;;;;;;;;;;;;;;;;;;5043992;28;19909;-43
2023/03/19 00:18:38;;;;;;;;;;;;;;;;;;5034247;28;19916;-43
2023/03/19 00:21:03;;;;;;;;;;;;;;;;;;5035167;28;19916;-43
2023/03/19 00:23:30;;;;;;;;;;;;;;;;;;5035031;28;19913;-43
2023/03/19 00:25:55;;;;;;;;;;;;;;;;;;5035808;28;19946;-44
2023/03/19 00:28:20;;;;;;;;;;;;;;;;;;5035392;28;19909;-43
2023/03/19 00:30:46;;;;;;;;;;;;;;;;;;5035231;28;20270;-42
2023/03/19 00:33:11;;;;;;;;;;;;;;;;;;5034694;28;20438;-43
2023/03/19 00:35:37;;;;;;;;;;;;;;;;;;5034784;28;19919;-46
2023/03/19 00:38:03;;;;;;;;;;;;;;;;;;5047959;28;19913;-44
2023/03/19 00:40:29;;;;;;;;;;;;;;;;;;5045858;28;19913;-45
2023/03/19 00:42:55;;;;;;;;;;;;;;;;;;5041757;28;20381;-42
2023/03/19 00:45:20;;;;;;;;;;;;;;;;;;5048548;28;20377;-43
2023/03/19 00:47:46;;;;;;;;;;;;;;;;;;5048527;28;19932;-42
2023/03/19 00:50:11;;;;;;;;;;;;;;;;;;5038520;28;19954;-42
2023/03/19 00:52:36;;;;;;;;;;;;;;;;;;5054380;28;20123;-44
2023/03/19 00:55:02;;;;;;;;;;;;;;;;;;5053412;28;19992;-42
2023/03/19 00:57:27;;;;;;;;;;;;;;;;;;5054948;28;19913;-42
2023/03/19 00:59:53;;;;;;;;;;;;;;;;;;5048760;28;20332;-43
2023/03/19 01:02:18;;;;;;;;;;;;;;;;;;5054394;28;20432;-44
2023/03/19 01:04:43;;;;;;;;;;;;;;;;;;5053146;28;20445;-46
2023/03/19 01:07:09;;;;;;;;;;;;;;;;;;5053347;28;20369;-43
2023/03/19 01:09:34;;;;;;;;;;;;;;;;;;5053438;28;19913;-43
2023/03/19 01:12:03;;;;;;;;;;;;;;;;;;5053743;28;19924;-44
2023/03/19 01:14:28;;;;;;;;;;;;;;;;;;5053454;28;20555;-43
2023/03/19 01:16:54;;;;;;;;;;;;;;;;;;5051852;28;19950;-42
2023/03/19 01:19:20;;;;;;;;;;;;;;;;;;5051937;28;19920;-43
2023/03/19 01:21:45;;;;;;;;;;;;;;;;;;5051739;28;19952;-42
2023/03/19 01:24:11;;;;;;;;;;;;;;;;;;5051666;28;19978;-41
2023/03/19 01:26:37;;;;;;;;;;;;;;;;;;5052864;28;19920;-41
2023/03/19 01:29:02;;;;;;;;;;;;;;;;;;5050465;28;19913;-41
2023/03/19 01:31:28;;;;;;;;;;;;;;;;;;5090566;22;19928;-45
2023/03/19 01:33:53;;;;;;;;;;;;;;;;;;5083282;28;20281;-41
2023/03/19 01:36:19;;;;;;;;;;;;;;;;;;5071871;28;20011;-43
2023/03/19 01:38:44;;;;;;;;;;;;;;;;;;5069205;28;19921;-46
2023/03/19 01:41:09;;;;;;;;;;;;;;;;;;5068796;28;19959;-42
2023/03/19 01:43:35;;;;;;;;;;;;;;;;;;5072005;28;20000;-44
2023/03/19 01:46:01;;;;;;;;;;;;;;;;;;5072355;28;20019;-44
2023/03/19 01:48:26;;;;;;;;;;;;;;;;;;5070539;28;19920;-47
2023/03/19 01:50:54;;;;;;;;;;;;;;;;;;5072710;28;19913;-43
2023/03/19 01:53:20;;;;;;;;;;;;;;;;;;5056999;28;19943;-44
2023/03/19 01:55:45;;;;;;;;;;;;;;;;;;5053056;28;19908;-43
2023/03/19 01:58:10;;;;;;;;;;;;;;;;;;5070613;28;19913;-43
2023/03/19 02:00:37;;;;;;;;;;;;;;;;;;5062586;28;20288;-45
2023/03/19 02:03:02;;;;;;;;;;;;;;;;;;5053539;28;19909;-46
2023/03/19 02:05:27;;;;;;;;;;;;;;;;;;5071935;28;20394;-43
2023/03/19 02:07:53;;;;;;;;;;;;;;;;;;5073626;28;19969;-44
2023/03/19 02:10:18;;;;;;;;;;;;;;;;;;5073513;28;19913;-43
2023/03/19 02:12:44;;;;;;;;;;;;;;;;;;5066891;28;19929;-44
2023/03/19 02:15:09;;;;;;;;;;;;;;;;;;5061792;28;19908;-42
2023/03/19 02:17:35;;;;;;;;;;;;;;;;;;5068118;28;19999;-45
2023/03/19 02:20:00;;;;;;;;;;;;;;;;;;5073423;28;19947;-43
2023/03/19 02:22:26;;;;;;;;;;;;;;;;;;5072770;28;20003;-44
2023/03/19 02:24:51;;;;;;;;;;;;;;;;;;5071297;28;20007;-43
2023/03/19 02:27:17;;;;;;;;;;;;;;;;;;5073152;28;19958;-44
2023/03/19 02:29:42;;;;;;;;;;;;;;;;;;5053275;28;20011;-43
2023/03/19 02:32:08;;;;;;;;;;;;;;;;;;5053430;28;20287;-43
2023/03/19 02:34:34;;;;;;;;;;;;;;;;;;5056604;28;19974;-44
2023/03/19 02:36:59;;;;;;;;;;;;;;;;;;5052742;28;20007;-43
2023/03/19 02:39:25;;;;;;;;;;;;;;;;;;5055126;28;20007;-43
2023/03/19 02:41:50;;;;;;;;;;;;;;;;;;5062994;28;19913;-46
2023/03/19 02:44:18;;;;;;;;;;;;;;;;;;5055676;28;19913;-42
2023/03/19 02:46:44;;;;;;;;;;;;;;;;;;5053224;28;19966;-42
2023/03/19 02:49:10;;;;;;;;;;;;;;;;;;5067667;28;19913;-42
2023/03/19 02:51:38;;;;;;;;;;;;;;;;;;5056138;28;20322;-45
2023/03/19 02:54:04;;;;;;;;;;;;;;;;;;5061594;28;19916;-43
2023/03/19 02:56:30;;;;;;;;;;;;;;;;;;5054828;28;19955;-44
2023/03/19 02:58:55;;;;;;;;;;;;;;;;;;5063355;28;19913;-42
2023/03/19 03:01:21;;;;;;;;;;;;;;;;;;5053494;28;20350;-42
2023/03/19 03:03:46;;;;;;;;;;;;;;;;;;5052275;28;19956;-43
2023/03/19 03:06:13;;;;;;;;;;;;;;;;;;5062695;28;19914;-42
2023/03/19 03:08:38;;;;;;;;;;;;;;;;;;5072184;28;19908;-44
2023/03/19 03:11:03;;;;;;;;;;;;;;;;;;5072183;28;20307;-42
2023/03/19 03:13:29;;;;;;;;;;;;;;;;;;5071807;28;20334;-43
2023/03/19 03:15:54;;;;;;;;;;;;;;;;;;5072371;28;20415;-46
2023/03/19 03:18:20;;;;;;;;;;;;;;;;;;5072191;28;19995;-44
2023/03/19 03:20:45;;;;;;;;;;;;;;;;;;5072097;28;19913;-46
2023/03/19 03:23:11;;;;;;;;;;;;;;;;;;5071413;28;19909;-45
2023/03/19 03:25:37;;;;;;;;;;;;;;;;;;5071930;28;19912;-44
2023/03/19 03:28:02;;;;;;;;;;;;;;;;;;5071246;28;19923;-42
2023/03/19 03:30:28;;;;;;;;;;;;;;;;;;5059612;28;19981;-44
2023/03/19 03:32:53;;;;;;;;;;;;;;;;;;5052974;28;20444;-42
2023/03/19 03:35:21;;;;;;;;;;;;;;;;;;5050429;28;20262;-43
2023/03/19 03:37:46;;;;;;;;;;;;;;;;;;5051468;28;19909;-42
2023/03/19 03:40:13;;;;;;;;;;;;;;;;;;5065272;28;19920;-43
2023/03/19 03:42:38;;;;;;;;;;;;;;;;;;5051663;28;19954;-43
2023/03/19 03:45:04;;;;;;;;;;;;;;;;;;5068213;28;19920;-43
2023/03/19 03:47:29;;;;;;;;;;;;;;;;;;5071727;28;19996;-44
2023/03/19 03:49:55;;;;;;;;;;;;;;;;;;5070578;28;20137;-43
2023/03/19 03:52:21;;;;;;;;;;;;;;;;;;5064633;28;19963;-44
2023/03/19 03:54:46;;;;;;;;;;;;;;;;;;5052163;28;20579;-43
2023/03/19 03:57:15;;;;;;;;;;;;;;;;;;5063926;28;20028;-43
2023/03/19 03:59:40;;;;;;;;;;;;;;;;;;5070413;28;19913;-43
2023/03/19 04:02:06;;;;;;;;;;;;;;;;;;5052568;28;19920;-45
2023/03/19 04:04:32;;;;;;;;;;;;;;;;;;5056871;28;19955;-44
2023/03/19 04:06:58;;;;;;;;;;;;;;;;;;5071625;28;19909;-43
2023/03/19 04:09:23;;;;;;;;;;;;;;;;;;5070216;28;19918;-46
2023/03/19 04:11:48;;;;;;;;;;;;;;;;;;5071416;28;19942;-43
2023/03/19 04:14:14;;;;;;;;;;;;;;;;;;5070641;28;20295;-47
2023/03/19 04:16:39;;;;;;;;;;;;;;;;;;5070717;28;20325;-43
2023/03/19 04:19:06;;;;;;;;;;;;;;;;;;5070505;28;19923;-45
2023/03/19 04:21:32;;;;;;;;;;;;;;;;;;5067664;28;19916;-46
2023/03/19 04:23:57;;;;;;;;;;;;;;;;;;5056470;28;19909;-45
2023/03/19 04:26:23;;;;;;;;;;;;;;;;;;5064792;28;20353;-45
2023/03/19 04:28:48;;;;;;;;;;;;;;;;;;5071747;28;20386;-46
2023/03/19 04:31:14;;;;;;;;;;;;;;;;;;5063832;28;20357;-44
2023/03/19 04:33:39;;;;;;;;;;;;;;;;;;5051453;28;20011;-44
2023/03/19 04:36:05;;;;;;;;;;;;;;;;;;5051436;28;20034;-43
2023/03/19 04:38:30;;;;;;;;;;;;;;;;;;5065562;28;19948;-44
2023/03/19 04:40:56;;;;;;;;;;;;;;;;;;5074785;28;19944;-43
2023/03/19 04:43:22;;;;;;;;;;;;;;;;;;5074937;28;20278;-45
2023/03/19 04:45:47;;;;;;;;;;;;;;;;;;5074853;28;19962;-43
2023/03/19 04:48:12;;;;;;;;;;;;;;;;;;5075154;28;19913;-43
2023/03/19 04:50:39;;;;;;;;;;;;;;;;;;5071459;28;19913;-47
2023/03/19 04:53:04;;;;;;;;;;;;;;;;;;5069852;28;19967;-43
2023/03/19 04:55:29;;;;;;;;;;;;;;;;;;5058399;28;19954;-44
2023/03/19 04:57:55;;;;;;;;;;;;;;;;;;5074337;28;19954;-42
2023/03/19 05:00:20;;;;;;;;;;;;;;;;;;5074717;28;19908;-44
2023/03/19 05:02:46;;;;;;;;;;;;;;;;;;5071967;28;19916;-42
2023/03/19 05:05:12;;;;;;;;;;;;;;;;;;5054688;28;19919;-43
2023/03/19 05:07:37;;;;;;;;;;;;;;;;;;5054358;28;19919;-42
2023/03/19 05:10:03;;;;;;;;;;;;;;;;;;5064557;28;19908;-42
2023/03/19 05:12:28;;;;;;;;;;;;;;;;;;5071360;28;20025;-44
2023/03/19 05:14:54;;;;;;;;;;;;;;;;;;5063754;28;19908;-42
2023/03/19 05:17:19;;;;;;;;;;;;;;;;;;5074624;28;19912;-46
2023/03/19 05:19:45;;;;;;;;;;;;;;;;;;5074141;28;20254;-42
2023/03/19 05:22:10;;;;;;;;;;;;;;;;;;5062137;28;20376;-44
2023/03/19 05:24:36;;;;;;;;;;;;;;;;;;5068825;28;19928;-43
2023/03/19 05:27:01;;;;;;;;;;;;;;;;;;5054202;28;19916;-45
2023/03/19 05:29:27;;;;;;;;;;;;;;;;;;5056591;28;19913;-43
2023/03/19 05:31:52;;;;;;;;;;;;;;;;;;5072479;28;19931;-42
2023/03/19 05:34:17;;;;;;;;;;;;;;;;;;5073930;28;19912;-45
2023/03/19 05:36:43;;;;;;;;;;;;;;;;;;5066938;28;19920;-44
2023/03/19 05:39:08;;;;;;;;;;;;;;;;;;5057704;28;19917;-42
2023/03/19 05:41:34;;;;;;;;;;;;;;;;;;5062052;28;19923;-42
2023/03/19 05:43:59;;;;;;;;;;;;;;;;;;5073622;28;19914;-43
2023/03/19 05:46:26;;;;;;;;;;;;;;;;;;5073554;28;19919;-43
2023/03/19 05:48:51;;;;;;;;;;;;;;;;;;5073489;28;20004;-44
2023/03/19 05:51:17;;;;;;;;;;;;;;;;;;5072907;28;20007;-46
2023/03/19 05:53:42;;;;;;;;;;;;;;;;;;5073302;28;19938;-43
2023/03/19 05:56:07;;;;;;;;;;;;;;;;;;5073609;28;20257;-42
2023/03/19 05:58:33;;;;;;;;;;;;;;;;;;5073559;28;19927;-44
2023/03/19 06:00:58;;;;;;;;;;;;;;;;;;5073273;28;19924;-43
2023/03/19 06:03:26;;;;;;;;;;;;;;;;;;5070879;28;20162;-42
2023/03/19 06:05:51;;;;;;;;;;;;;;;;;;5073347;28;19970;-44
2023/03/19 06:08:16;;;;;;;;;;;;;;;;;;5073336;28;20348;-42
2023/03/19 06:10:42;;;;;;;;;;;;;;;;;;5072974;28;19909;-42
2023/03/19 06:13:07;;;;;;;;;;;;;;;;;;5073121;28;19927;-42
2023/03/19 06:15:33;;;;;;;;;;;;;;;;;;5073189;28;19995;-43
2023/03/19 06:17:58;;;;;;;;;;;;;;;;;;5073103;28;19908;-45
2023/03/19 06:20:24;;;;;;;;;;;;;;;;;;5072796;28;19935;-43
2023/03/19 06:22:50;;;;;;;;;;;;;;;;;;5067236;28;20281;-42
2023/03/19 06:25:15;;;;;;;;;;;;;;;;;;5052763;28;19916;-43
2023/03/19 06:27:40;;;;;;;;;;;;;;;;;;5052971;28;20341;-46
2023/03/19 06:30:06;;;;;;;;;;;;;;;;;;5059162;28;19916;-42
2023/03/19 06:32:31;;;;;;;;;;;;;;;;;;5071845;28;19917;-44
2023/03/19 06:34:57;;;;;;;;;;;;;;;;;;5053349;28;19971;-42
2023/03/19 06:37:22;;;;;;;;;;;;;;;;;;5057113;28;19912;-42
2023/03/19 06:39:48;;;;;;;;;;;;;;;;;;5051588;28;20011;-43
2023/03/19 06:42:13;;;;;;;;;;;;;;;;;;5052092;28;19908;-42
2023/03/19 06:44:39;;;;;;;;;;;;;;;;;;5062469;28;20007;-42
2023/03/19 06:47:04;;;;;;;;;;;;;;;;;;5052753;28;20379;-43
2023/03/19 06:49:30;;;;;;;;;;;;;;;;;;5066500;28;19913;-43
2023/03/19 06:51:55;;;;;;;;;;;;;;;;;;5072221;28;19923;-45
2023/03/19 06:54:21;;;;;;;;;;;;;;;;;;5071081;28;19912;-45
2023/03/19 06:56:47;;;;;;;;;;;;;;;;;;5067231;28;19992;-42
2023/03/19 06:59:13;;;;;;;;;;;;;;;;;;5062844;28;19912;-42
2023/03/19 07:01:38;;;;;;;;;;;;;;;;;;5072075;28;20393;-41
2023/03/19 07:04:04;;;;;;;;;;;;;;;;;;5063164;28;19917;-42
2023/03/19 07:06:29;;;;;;;;;;;;;;;;;;5064529;28;19917;-43
2023/03/19 07:08:55;;;;;;;;;;;;;;;;;;5071317;28;19912;-42
2023/03/19 07:11:20;;;;;;;;;;;;;;;;;;5070011;28;20356;-44
2023/03/19 07:13:45;;;;;;;;;;;;;;;;;;5070761;28;20014;-42
2023/03/19 07:16:11;;;;;;;;;;;;;;;;;;5072346;28;19908;-43
2023/03/19 07:18:36;;;;;;;;;;;;;;;;;;5069977;28;19978;-42
2023/03/19 07:21:02;;;;;;;;;;;;;;;;;;5071446;28;20341;-42
2023/03/19 07:23:27;;;;;;;;;;;;;;;;;;5070276;28;19913;-42
2023/03/19 07:25:53;;;;;;;;;;;;;;;;;;5071982;28;19909;-42
2023/03/19 07:28:18;;;;;;;;;;;;;;;;;;5072132;28;19908;-43
2023/03/19 07:30:43;;;;;;;;;;;;;;;;;;5070433;28;20049;-43
2023/03/19 07:33:09;;;;;;;;;;;;;;;;;;5071819;28;20019;-43
2023/03/19 07:35:35;;;;;;;;;;;;;;;;;;5070557;28;19912;-41
2023/03/19 07:38:01;;;;;;;;;;;;;;;;;;5072182;28;20266;-41
2023/03/19 07:40:27;;;;;;;;;;;;;;;;;;5055157;28;19920;-43
2023/03/19 07:42:52;;;;;;;;;;;;;;;;;;5051506;28;19917;-42
2023/03/19 07:45:17;;;;;;;;;;;;;;;;;;5051651;28;19923;-41
2023/03/19 07:47:43;;;;;;;;;;;;;;;;;;5051680;28;20155;-44
2023/03/19 07:50:08;;;;;;;;;;;;;;;;;;5051967;28;19916;-44
2023/03/19 07:52:34;;;;;;;;;;;;;;;;;;5051117;28;19917;-41
2023/03/19 07:55:00;;;;;;;;;;;;;;;;;;5049985;28;19912;-41
2023/03/19 07:57:25;;;;;;;;;;;;;;;;;;5057186;28;19912;-42
2023/03/19 07:59:51;;;;;;;;;;;;;;;;;;5063004;28;19959;-42
2023/03/19 08:02:16;;;;;;;;;;;;;;;;;;5068323;28;19913;-42
2023/03/19 08:04:42;;;;;;;;;;;;;;;;;;5056702;28;19999;-41
2023/03/19 08:07:09;;;;;;;;;;;;;;;;;;5055146;28;19919;-41
2023/03/19 08:09:36;;;;;;;;;;;;;;;;;;5054109;28;19913;-42
2023/03/19 08:12:01;;;;;;;;;;;;;;;;;;5050329;28;19947;-41
2023/03/19 08:14:27;;;;;;;;;;;;;;;;;;5058180;28;19921;-41
2023/03/19 08:16:52;;;;;;;;;;;;;;;;;;5073428;28;19916;-44
2023/03/19 08:19:17;;;;;;;;;;;;;;;;;;5069827;28;20197;-41
2023/03/19 08:21:43;;;;;;;;;;;;;;;;;;5075000;28;19912;-41
2023/03/19 08:24:08;;;;;;;;;;;;;;;;;;5074359;28;19912;-42
2023/03/19 08:26:34;;;;;;;;;;;;;;;;;;5075214;28;19908;-41
2023/03/19 08:28:59;;;;;;;;;;;;;;;;;;5073649;28;19920;-42
2023/03/19 08:31:25;;;;;;;;;;;;;;;;;;5055878;28;19978;-42
2023/03/19 08:33:50;;;;;;;;;;;;;;;;;;5054867;28;19963;-41
2023/03/19 08:36:16;;;;;;;;;;;;;;;;;;5056490;28;19955;-41
2023/03/19 08:38:41;;;;;;;;;;;;;;;;;;5054993;28;19960;-41
2023/03/19 08:41:07;;;;;;;;;;;;;;;;;;5053999;28;19998;-41
2023/03/19 08:43:33;;;;;;;;;;;;;;;;;;5065613;28;19938;-41
2023/03/19 08:45:58;;;;;;;;;;;;;;;;;;5073666;28;19912;-42
2023/03/19 08:48:24;;;;;;;;;;;;;;;;;;5055236;28;19916;-42
2023/03/19 08:50:49;;;;;;;;;;;;;;;;;;5052858;28;19928;-42
2023/03/19 08:53:14;;;;;;;;;;;;;;;;;;5054632;28;19917;-44
2023/03/19 08:55:40;;;;;;;;;;;;;;;;;;5066835;28;19913;-41
2023/03/19 08:58:05;;;;;;;;;;;;;;;;;;5054645;28;19920;-40
2023/03/19 09:00:31;;;;;;;;;;;;;;;;;;5067914;28;19949;-41
2023/03/19 09:02:56;;;;;;;;;;;;;;;;;;5072322;28;19912;-41
2023/03/19 09:05:23;;;;;;;;;;;;;;;;;;5070692;28;19912;-42
2023/03/19 09:07:48;;;;;;;;;;;;;;;;;;5071668;28;19921;-41
2023/03/19 09:10:13;;;;;;;;;;;;;;;;;;5072991;28;19913;-41
2023/03/19 09:12:39;;;;;;;;;;;;;;;;;;5060609;28;19921;-42
2023/03/19 09:15:05;;;;;;;;;;;;;;;;;;5093441;22;20003;-42
2023/03/19 09:17:30;;;;;;;;;;;;;;;;;;5056257;28;19917;-41
2023/03/19 09:19:56;;;;;;;;;;;;;;;;;;5061885;28;20369;-41
2023/03/19 09:22:21;;;;;;;;;;;;;;;;;;5071847;28;19970;-42
2023/03/19 09:24:47;;;;;;;;;;;;;;;;;;5070661;28;19927;-42
2023/03/19 09:27:12;;;;;;;;;;;;;;;;;;5054555;28;19917;-42
2023/03/19 09:29:38;;;;;;;;;;;;;;;;;;5056858;28;19917;-44
2023/03/19 09:32:03;;;;;;;;;;;;;;;;;;5074159;28;19954;-42
2023/03/19 09:34:28;;;;;;;;;;;;;;;;;;5073471;28;19908;-43
2023/03/19 09:36:54;;;;;;;;;;;;;;;;;;5074325;28;19908;-42
2023/03/19 09:39:19;;;;;;;;;;;;;;;;;;5067384;28;19921;-41
2023/03/19 09:41:45;;;;;;;;;;;;;;;;;;5056142;28;19916;-43
2023/03/19 09:44:10;;;;;;;;;;;;;;;;;;5061860;28;19921;-42
2023/03/19 09:46:36;;;;;;;;;;;;;;;;;;5068429;28;19909;-44
2023/03/19 09:49:01;;;;;;;;;;;;;;;;;;5054140;28;20313;-43
2023/03/19 09:51:27;;;;;;;;;;;;;;;;;;5053885;28;19912;-43
2023/03/19 09:53:52;;;;;;;;;;;;;;;;;;5053794;28;19920;-42
2023/03/19 09:56:18;;;;;;;;;;;;;;;;;;5054126;28;19924;-42
2023/03/19 09:58:43;;;;;;;;;;;;;;;;;;5053834;28;20314;-42
2023/03/19 10:01:09;;;;;;;;;;;;;;;;;;5054145;28;19923;-42
2023/03/19 10:03:34;;;;;;;;;;;;;;;;;;5067509;28;19987;-42
2023/03/19 10:06:00;;;;;;;;;;;;;;;;;;5053833;28;19991;-42
2023/03/19 10:08:25;;;;;;;;;;;;;;;;;;5053808;28;19913;-43
2023/03/19 10:10:51;;;;;;;;;;;;;;;;;;5053593;28;19909;-42
2023/03/19 10:13:16;;;;;;;;;;;;;;;;;;5053210;28;19996;-43
2023/03/19 10:15:43;;;;;;;;;;;;;;;;;;5054159;28;20384;-43
2023/03/19 10:18:08;;;;;;;;;;;;;;;;;;5054207;28;19904;-42
2023/03/19 10:20:34;;;;;;;;;;;;;;;;;;5073376;28;20369;-43
2023/03/19 10:23:00;;;;;;;;;;;;;;;;;;5067305;28;19913;-42
2023/03/19 10:25:26;;;;;;;;;;;;;;;;;;5052605;28;19909;-43
2023/03/19 10:27:53;;;;;;;;;;;;;;;;;;5071202;28;19908;-42
2023/03/19 10:30:18;;;;;;;;;;;;;;;;;;5060751;28;19919;-42
2023/03/19 10:32:44;;;;;;;;;;;;;;;;;;5053331;28;19925;-43
2023/03/19 10:35:09;;;;;;;;;;;;;;;;;;5054026;28;20003;-42
2023/03/19 10:37:35;;;;;;;;;;;;;;;;;;5072871;28;19916;-42
2023/03/19 10:40:00;;;;;;;;;;;;;;;;;;5073360;28;19912;-43
2023/03/19 10:42:26;;;;;;;;;;;;;;;;;;5073209;28;19908;-43
2023/03/19 10:44:51;;;;;;;;;;;;;;;;;;5073467;28;20264;-43
2023/03/19 10:47:18;;;;;;;;;;;;;;;;;;5072897;28;19915;-45
2023/03/19 10:49:44;;;;;;;;;;;;;;;;;;5073050;28;20324;-42
2023/03/19 10:52:09;;;;;;;;;;;;;;;;;;5072654;28;19916;-43
2023/03/19 10:54:35;;;;;;;;;;;;;;;;;;5072903;28;19915;-42
2023/03/19 10:57:00;;;;;;;;;;;;;;;;;;5053474;28;19913;-42
2023/03/19 10:59:26;;;;;;;;;;;;;;;;;;5067601;28;19964;-42
2023/03/19 11:01:51;;;;;;;;;;;;;;;;;;5071463;28;20307;-42
2023/03/19 11:04:16;;;;;;;;;;;;;;;;;;5070841;28;19920;-43
2023/03/19 11:06:42;;;;;;;;;;;;;;;;;;5072969;28;19916;-41
2023/03/19 11:09:07;;;;;;;;;;;;;;;;;;5070719;28;19967;-42
2023/03/19 11:11:33;;;;;;;;;;;;;;;;;;5065061;28;19923;-41
2023/03/19 11:13:58;;;;;;;;;;;;;;;;;;5071163;28;19927;-42
2023/03/19 11:16:24;;;;;;;;;;;;;;;;;;5067471;28;19970;-42
2023/03/19 11:18:49;;;;;;;;;;;;;;;;;;5052771;28;20284;-43
2023/03/19 11:21:15;;;;;;;;;;;;;;;;;;5059037;28;20516;-43
2023/03/19 11:23:40;;;;;;;;;;;;;;;;;;5054181;28;19916;-42
2023/03/19 11:26:06;;;;;;;;;;;;;;;;;;5069543;28;20011;-42
2023/03/19 11:28:32;;;;;;;;;;;;;;;;;;5072595;28;20272;-42
2023/03/19 11:30:58;;;;;;;;;;;;;;;;;;5072358;28;19916;-42
2023/03/19 11:33:23;;;;;;;;;;;;;;;;;;5072197;28;19920;-43
2023/03/19 11:35:48;;;;;;;;;;;;;;;;;;5072491;28;19925;-45
2023/03/19 11:38:14;;;;;;;;;;;;;;;;;;5072372;28;19919;-42
2023/03/19 11:40:40;;;;;;;;;;;;;;;;;;5072236;28;19908;-42
2023/03/19 11:43:05;;;;;;;;;;;;;;;;;;5072233;28;19913;-43
2023/03/19 11:45:31;;;;;;;;;;;;;;;;;;5072255;28;19909;-43
2023/03/19 11:47:56;;;;;;;;;;;;;;;;;;5071341;28;19920;-46
2023/03/19 11:50:21;;;;;;;;;;;;;;;;;;5062288;28;19917;-42
2023/03/19 11:52:47;;;;;;;;;;;;;;;;;;5056021;28;19916;-42
2023/03/19 11:55:13;;;;;;;;;;;;;;;;;;5055643;28;20016;-42
2023/03/19 11:57:38;;;;;;;;;;;;;;;;;;5055939;28;20358;-41
2023/03/19 12:00:06;;;;;;;;;;;;;;;;;;5055849;28;19915;-44
2023/03/19 12:02:32;;;;;;;;;;;;;;;;;;5075780;28;19912;-42
2023/03/19 12:04:57;;;;;;;;;;;;;;;;;;5075585;28;19915;-42
2023/03/19 12:07:23;;;;;;;;;;;;;;;;;;5064044;28;19908;-41
2023/03/19 12:09:48;;;;;;;;;;;;;;;;;;5055724;28;19908;-42
2023/03/19 12:12:14;;;;;;;;;;;;;;;;;;5055119;28;19921;-43
2023/03/19 12:14:39;;;;;;;;;;;;;;;;;;5054067;28;19921;-42
2023/03/19 12:17:06;;;;;;;;;;;;;;;;;;5055515;28;20007;-45
2023/03/19 12:19:31;;;;;;;;;;;;;;;;;;5074986;28;19995;-43
2023/03/19 12:21:57;;;;;;;;;;;;;;;;;;5057094;28;20008;-42
2023/03/19 12:24:22;;;;;;;;;;;;;;;;;;5055511;28;19958;-41
2023/03/19 12:26:48;;;;;;;;;;;;;;;;;;5067458;28;20292;-41
2023/03/19 12:29:14;;;;;;;;;;;;;;;;;;5057513;28;19924;-42
2023/03/19 12:31:40;;;;;;;;;;;;;;;;;;5067734;28;19924;-42
2023/03/19 12:34:06;;;;;;;;;;;;;;;;;;5061131;28;20041;-42
2023/03/19 12:36:32;;;;;;;;;;;;;;;;;;5067278;28;20364;-41
2023/03/19 12:38:57;;;;;;;;;;;;;;;;;;5074235;28;19909;-42
2023/03/19 12:41:23;;;;;;;;;;;;;;;;;;5068054;28;19943;-43
2023/03/19 12:43:49;;;;;;;;;;;;;;;;;;5055538;28;19913;-42
2023/03/19 12:46:14;;;;;;;;;;;;;;;;;;5068718;28;20372;-41
2023/03/19 12:48:40;;;;;;;;;;;;;;;;;;5073658;28;19955;-41
2023/03/19 12:51:06;;;;;;;;;;;;;;;;;;5065587;28;19920;-42
2023/03/19 12:53:31;;;;;;;;;;;;;;;;;;5069875;28;20023;-42
2023/03/19 12:55:57;;;;;;;;;;;;;;;;;;5055301;28;20066;-44
2023/03/19 12:58:22;;;;;;;;;;;;;;;;;;5061338;28;19955;-43
2023/03/19 13:00:48;;;;;;;;;;;;;;;;;;5074833;28;19920;-43
2023/03/19 13:03:14;;;;;;;;;;;;;;;;;;5075139;28;19915;-45
2023/03/19 13:05:40;;;;;;;;;;;;;;;;;;5075084;28;19912;-43
2023/03/19 13:08:05;;;;;;;;;;;;;;;;;;5075106;28;20292;-42
2023/03/19 13:10:31;;;;;;;;;;;;;;;;;;5066842;28;19919;-41
2023/03/19 13:12:56;;;;;;;;;;;;;;;;;;5070399;28;20361;-44
2023/03/19 13:15:22;;;;;;;;;;;;;;;;;;5065584;28;19946;-43
2023/03/19 13:17:47;;;;;;;;;;;;;;;;;;5064392;28;19915;-42
2023/03/19 13:20:13;;;;;;;;;;;;;;;;;;5056936;28;19951;-42
2023/03/19 13:22:39;;;;;;;;;;;;;;;;;;5054046;28;20320;-42
2023/03/19 13:25:04;;;;;;;;;;;;;;;;;;5054051;28;20004;-41
2023/03/19 13:27:30;;;;;;;;;;;;;;;;;;5057038;28;19908;-42
2023/03/19 13:29:55;;;;;;;;;;;;;;;;;;5053883;28;19909;-41
2023/03/19 13:32:20;;;;;;;;;;;;;;;;;;5066998;28;19928;-41
2023/03/19 13:34:46;;;;;;;;;;;;;;;;;;5074215;28;19908;-45
2023/03/19 13:37:11;;;;;;;;;;;;;;;;;;5074326;28;19995;-41
2023/03/19 13:39:37;;;;;;;;;;;;;;;;;;5057754;28;19909;-41
2023/03/19 13:42:03;;;;;;;;;;;;;;;;;;5053672;28;20007;-41
2023/03/19 13:44:28;;;;;;;;;;;;;;;;;;5069315;28;20391;-41
2023/03/19 13:46:54;;;;;;;;;;;;;;;;;;5055031;28;19913;-44
2023/03/19 13:49:19;;;;;;;;;;;;;;;;;;5068705;28;19966;-44
2023/03/19 13:51:45;;;;;;;;;;;;;;;;;;5053624;28;19975;-42
2023/03/19 13:54:11;;;;;;;;;;;;;;;;;;5058499;28;19917;-44
2023/03/19 13:56:36;;;;;;;;;;;;;;;;;;5063842;28;19912;-42
2023/03/19 13:59:02;;;;;;;;;;;;;;;;;;5065442;28;19959;-39
2023/03/19 14:01:27;;;;;;;;;;;;;;;;;;5071147;28;19955;-45
2023/03/19 14:03:53;;;;;;;;;;;;;;;;;;5071519;28;20003;-39
2023/03/19 14:06:18;;;;;;;;;;;;;;;;;;5072113;28;19999;-40
2023/03/19 14:08:46;;;;;;;;;;;;;;;;;;5072959;28;20061;-42
2023/03/19 14:11:11;;;;;;;;;;;;;;;;;;5071303;28;20288;-40
2023/03/19 14:13:37;;;;;;;;;;;;;;;;;;5073162;28;20376;-40
2023/03/19 14:16:02;;;;;;;;;;;;;;;;;;5067571;28;19916;-39
2023/03/19 14:18:27;;;;;;;;;;;;;;;;;;5071699;28;20276;-39
2023/03/19 14:20:53;;;;;;;;;;;;;;;;;;5071663;28;20380;-44
2023/03/19 14:23:20;;;;;;;;;;;;;;;;;;5072010;28;19913;-40
2023/03/19 14:25:45;;;;;;;;;;;;;;;;;;5072067;28;19923;-40
2023/03/19 14:28:10;;;;;;;;;;;;;;;;;;5067027;28;19999;-41
2023/03/19 14:30:37;;;;;;;;;;;;;;;;;;5071738;28;19916;-40
2023/03/19 14:33:03;;;;;;;;;;;;;;;;;;5071860;28;20160;-38
2023/03/19 14:35:28;;;;;;;;;;;;;;;;;;5071570;28;20338;-39
2023/03/19 14:37:54;;;;;;;;;;;;;;;;;;5063993;28;19913;-39
2023/03/19 14:40:19;;;;;;;;;;;;;;;;;;5057082;28;19957;-39
2023/03/19 14:42:45;;;;;;;;;;;;;;;;;;5072340;28;20373;-39
2023/03/19 14:45:10;;;;;;;;;;;;;;;;;;5070300;28;19920;-39
2023/03/19 14:47:36;;;;;;;;;;;;;;;;;;5054663;28;19954;-39
2023/03/19 14:50:01;;;;;;;;;;;;;;;;;;5053039;28;20062;-39
2023/03/19 14:52:26;;;;;;;;;;;;;;;;;;5070019;28;19921;-39
2023/03/19 14:54:52;;;;;;;;;;;;;;;;;;5072725;28;19950;-39
2023/03/19 14:57:17;;;;;;;;;;;;;;;;;;5072596;28;19912;-39
2023/03/19 14:59:43;;;;;;;;;;;;;;;;;;5073027;28;20323;-39
2023/03/19 15:02:08;;;;;;;;;;;;;;;;;;5071893;28;20007;-39
2023/03/19 15:04:34;;;;;;;;;;;;;;;;;;5072273;28;19997;-39
2023/03/19 15:07:03;;;;;;;;;;;;;;;;;;5068715;28;20352;-41
2023/03/19 15:09:30;;;;;;;;;;;;;;;;;;5073189;28;19932;-48
2023/03/19 15:11:55;;;;;;;;;;;;;;;;;;5071503;28;19935;-41
2023/03/19 15:14:21;;;;;;;;;;;;;;;;;;5071810;28;20285;-41
2023/03/19 15:16:46;;;;;;;;;;;;;;;;;;5058413;28;19919;-42
2023/03/19 15:19:12;;;;;;;;;;;;;;;;;;5068123;28;19909;-41
2023/03/19 15:21:38;;;;;;;;;;;;;;;;;;5056253;28;20266;-40
2023/03/19 15:24:03;;;;;;;;;;;;;;;;;;5053435;28;20027;-41
2023/03/19 15:26:29;;;;;;;;;;;;;;;;;;5061997;28;19970;-41
2023/03/19 15:28:56;;;;;;;;;;;;;;;;;;5060926;28;20329;-40
2023/03/19 15:31:22;;;;;;;;;;;;;;;;;;5062564;28;19961;-40
2023/03/19 15:33:47;;;;;;;;;;;;;;;;;;5058216;28;20019;-40
2023/03/19 15:36:15;;;;;;;;;;;;;;;;;;5068098;28;19912;-40
2023/03/19 15:38:40;;;;;;;;;;;;;;;;;;5060989;28;20276;-41
2023/03/19 15:41:05;;;;;;;;;;;;;;;;;;5072166;28;19923;-41
2023/03/19 15:43:31;;;;;;;;;;;;;;;;;;5069327;28;19908;-40
2023/03/19 15:45:56;;;;;;;;;;;;;;;;;;5071337;28;19920;-40
2023/03/19 15:48:22;;;;;;;;;;;;;;;;;;5065369;28;19932;-41
2023/03/19 15:50:47;;;;;;;;;;;;;;;;;;5066665;28;19912;-41
2023/03/19 15:53:13;;;;;;;;;;;;;;;;;;5072192;28;20372;-40
2023/03/19 15:55:38;;;;;;;;;;;;;;;;;;5066409;28;19909;-39
2023/03/19 15:58:04;;;;;;;;;;;;;;;;;;5065133;28;19948;-39
2023/03/19 16:00:29;;;;;;;;;;;;;;;;;;5067148;28;19955;-39
2023/03/19 16:02:55;;;;;;;;;;;;;;;;;;5052922;28;19920;-39
2023/03/19 16:05:20;;;;;;;;;;;;;;;;;;5051964;28;19908;-43
2023/03/19 16:07:46;;;;;;;;;;;;;;;;;;5048484;28;20007;-41
2023/03/19 16:10:12;;;;;;;;;;;;;;;;;;5071944;28;19909;-41
2023/03/19 16:12:37;;;;;;;;;;;;;;;;;;5071996;28;19924;-42
2023/03/19 16:15:02;;;;;;;;;;;;;;;;;;5072625;28;19929;-41
2023/03/19 16:17:28;;;;;;;;;;;;;;;;;;5071924;28;19961;-42
2023/03/19 16:19:54;;;;;;;;;;;;;;;;;;5052185;28;19966;-42
2023/03/19 16:22:20;;;;;;;;;;;;;;;;;;5051926;28;19955;-41
2023/03/19 16:24:45;;;;;;;;;;;;;;;;;;5052146;28;19968;-41
2023/03/19 16:27:11;;;;;;;;;;;;;;;;;;5051985;28;19948;-41
2023/03/19 16:29:36;;;;;;;;;;;;;;;;;;5064519;28;19913;-41
2023/03/19 16:32:02;;;;;;;;;;;;;;;;;;5071857;28;19909;-42
2023/03/19 16:34:27;;;;;;;;;;;;;;;;;;5072328;28;19908;-42